This is the latest recevied weather packets stored in our database for station/object GW4003. If no packets are shown the sender has not sent any weather packets the latest 10 day(s).
| Time | Temp. | Humidity | Pressure | Rain* | Wind** | Luminosity | Snow |
|---|---|---|---|---|---|---|---|
| 1787797943 | 19.44° C | 77% | 1026.6 hPa | 0 mm | - | - | - |
| 1787797640 | 19.44° C | 77% | 1026.5 hPa | 0 mm | - | - | - |
| 1787797336 | 19.44° C | 78% | 1026.4 hPa | 0 mm | - | - | - |
| 1787797032 | 19.44° C | 79% | 1026.3 hPa | 0 mm | - | - | - |
| 1787796728 | 19.44° C | 79% | 1026.3 hPa | 0 mm | - | - | - |
| 1787796425 | 19.44° C | 79% | 1026.3 hPa | 0 mm | - | - | - |
| 1787796121 | 19.44° C | 80% | 1026.4 hPa | 0 mm | - | - | - |
| 1787795818 | 19.44° C | 80% | 1026.2 hPa | 0 mm | - | - | - |
| 1787795514 | 19.44° C | 81% | 1026.1 hPa | 0.25 mm | - | - | - |
| 1787795211 | 19.44° C | 81% | 1026.2 hPa | 0.51 mm | - | - | - |
| 1787794907 | 20° C | 82% | 1026 hPa | 1.27 mm | - | - | - |
| 1787794603 | 20° C | 81% | 1025.9 hPa | 2.54 mm | - | - | - |
| 1787794299 | 20° C | 81% | 1026.2 hPa | 3.56 mm | - | - | - |
| 1787793996 | 19.44° C | 81% | 1026.3 hPa | 3.56 mm | - | - | - |
| 1787793692 | 19.44° C | 80% | 1026.3 hPa | 3.56 mm | - | - | - |
| 1787793387 | 19.44° C | 79% | 1026.4 hPa | 3.56 mm | - | - | - |
| 1787793084 | 19.44° C | 79% | 1026.5 hPa | 3.56 mm | - | - | - |
| 1787792781 | 19.44° C | 79% | 1026.7 hPa | 3.56 mm | - | - | - |
| 1787792477 | 19.44° C | 78% | 1026.8 hPa | 3.56 mm | - | - | - |
| 1787792173 | 19.44° C | 75% | 1026.6 hPa | 3.56 mm | - | - | - |
| 1787791870 | 20° C | 73% | 1026.7 hPa | 3.3 mm | - | - | - |
| 1787791566 | 20.56° C | 70% | 1026.5 hPa | 3.05 mm | - | - | - |
| 1787791263 | 22.22° C | 65% | 1026.1 hPa | 1.78 mm | - | - | - |
| 1787790962 | 23.33° C | 59% | 1026.2 hPa | 0.51 mm | - | - | - |
| 1787790657 | 23.89° C | 60% | 1026.1 hPa | 0 mm | - | - | - |
* Rain latest hour (hover to see other rain measurements)
** Current wind speed in m/s (hover to see current wind gust speed)